createdAt,value
2023-03-06T00:01:27.089Z,77.30
2023-03-06T00:03:56.951Z,77.70
2023-03-06T00:06:26.897Z,77.60
2023-03-06T00:08:56.708Z,77.40
2023-03-06T00:11:26.417Z,77.10
2023-03-06T00:13:56.308Z,77.40
2023-03-06T00:16:26.122Z,77.80
2023-03-06T00:18:55.913Z,77.60
2023-03-06T00:21:25.957Z,78.00
2023-03-06T00:23:55.783Z,77.90
2023-03-06T00:26:25.620Z,77.70
2023-03-06T00:28:55.446Z,77.70
2023-03-06T00:31:25.449Z,77.80
2023-03-06T00:33:55.613Z,77.40
2023-03-06T00:36:25.541Z,77.50
2023-03-06T00:38:55.401Z,77.50
2023-03-06T00:41:26.744Z,77.50
2023-03-06T00:43:57.854Z,77.70
2023-03-06T00:46:27.898Z,77.40
2023-03-06T00:48:57.910Z,77.30
2023-03-06T00:51:27.800Z,77.10
2023-03-06T00:53:57.644Z,77.20
2023-03-06T00:56:27.613Z,77.20
2023-03-06T00:58:57.447Z,77.10
2023-03-06T01:01:27.293Z,77.40
2023-03-06T01:03:58.424Z,77.10
2023-03-06T01:06:28.307Z,76.80
2023-03-06T01:08:58.129Z,77.10
2023-03-06T01:11:27.978Z,77.10
2023-03-06T01:13:57.963Z,77.10
2023-03-06T01:16:27.941Z,77.10
2023-03-06T01:22:17.666Z,76.80
2023-03-06T01:28:11.365Z,76.70
2023-03-06T01:30:55.418Z,76.70
2023-03-06T01:33:30.987Z,76.70
2023-03-06T01:36:00.811Z,76.40
2023-03-06T01:38:33.706Z,76.40
2023-03-06T01:41:05.660Z,76.50
2023-03-06T01:43:36.764Z,76.60
2023-03-06T01:46:20.139Z,76.30
2023-03-06T01:48:51.050Z,76.60
2023-03-06T01:51:24.284Z,76.50
2023-03-06T01:53:57.539Z,76.20
2023-03-06T01:56:31.872Z,76.00
2023-03-06T01:59:03.798Z,75.70
2023-03-06T02:01:34.540Z,75.70
2023-03-06T02:04:07.966Z,75.80
2023-03-06T02:06:39.463Z,76.00
2023-03-06T02:09:10.631Z,75.70
2023-03-06T02:11:46.535Z,76.10
2023-03-06T02:14:16.643Z,76.00
2023-03-06T02:16:46.736Z,75.50
2023-03-06T02:19:34.522Z,75.10
2023-03-06T02:22:42.686Z,75.20
2023-03-06T02:24:43.055Z,75.30
2023-03-06T02:27:15.310Z,75.30
2023-03-06T02:29:45.670Z,74.90
2023-03-06T02:32:28.591Z,74.90
2023-03-06T02:38:26.549Z,73.90
2023-03-06T02:40:56.410Z,73.20
2023-03-06T02:43:27.659Z,72.50
2023-03-06T02:45:57.530Z,72.30
2023-03-06T02:48:33.917Z,72.40
2023-03-06T02:51:28.748Z,72.20
2023-03-06T02:56:49.395Z,71.70
2023-03-06T02:59:31.802Z,71.40
2023-03-06T03:02:02.057Z,70.80
2023-03-06T03:04:33.683Z,70.40
2023-03-06T03:10:22.943Z,69.90
2023-03-06T03:12:53.366Z,69.60
2023-03-06T03:15:23.287Z,69.20
2023-03-06T03:17:53.124Z,68.90
2023-03-06T03:30:27.289Z,68.50
2023-03-06T03:33:10.580Z,68.10
2023-03-06T03:35:40.532Z,68.40
2023-03-06T03:38:10.366Z,67.50
2023-03-06T03:40:40.898Z,66.90
2023-03-06T03:43:10.738Z,66.60
2023-03-06T03:45:41.997Z,66.90
2023-03-06T03:48:11.958Z,66.30
2023-03-06T03:50:41.793Z,65.90
2023-03-06T03:53:11.668Z,65.20
2023-03-06T03:55:41.473Z,65.00
2023-03-06T03:58:11.390Z,64.80
2023-03-06T04:00:41.263Z,64.60
2023-03-06T04:04:06.009Z,63.00
2023-03-06T04:06:36.045Z,63.10
2023-03-06T04:09:06.263Z,63.20
2023-03-06T04:11:39.254Z,62.60
2023-03-06T04:14:10.504Z,60.60
2023-03-06T04:16:40.383Z,62.40
2023-03-06T04:22:18.743Z,60.60
2023-03-06T04:24:49.850Z,60.90
2023-03-06T04:27:21.388Z,61.30
2023-03-06T04:29:51.638Z,59.90
2023-03-06T04:32:21.706Z,61.10
2023-03-06T04:34:51.945Z,59.70
2023-03-06T04:37:26.012Z,58.80
2023-03-06T04:39:55.881Z,58.90
2023-03-06T04:42:26.309Z,58.60
2023-03-06T04:44:59.012Z,58.90
2023-03-06T04:47:29.118Z,59.40
2023-03-06T04:53:00.156Z,58.30
2023-03-06T04:55:30.493Z,58.30
2023-03-06T04:58:02.339Z,59.40
2023-03-06T05:00:36.876Z,59.10
2023-03-06T05:03:06.867Z,59.90
2023-03-06T05:05:36.725Z,58.20
2023-03-06T05:08:06.965Z,57.50
2023-03-06T05:10:50.370Z,58.10
2023-03-06T05:13:20.631Z,57.30
2023-03-06T05:15:53.298Z,57.40
2023-03-06T05:21:23.477Z,57.80
2023-03-06T05:23:54.630Z,58.10
2023-03-06T05:26:24.442Z,58.10
2023-03-06T05:28:56.714Z,59.30
2023-03-06T05:32:06.590Z,57.50
2023-03-06T05:40:42.450Z,57.10
2023-03-06T05:43:43.156Z,56.70
2023-03-06T05:50:03.879Z,57.60
2023-03-06T05:52:55.165Z,57.60
2023-03-06T05:55:25.401Z,57.50
2023-03-06T05:58:05.560Z,57.80
2023-03-06T06:00:39.772Z,58.00
2023-03-06T06:03:09.844Z,56.70
2023-03-06T06:05:46.625Z,56.70
2023-03-06T06:08:16.444Z,58.50
2023-03-06T06:10:46.164Z,57.50
2023-03-06T06:13:16.010Z,56.10
2023-03-06T06:15:45.968Z,56.20
2023-03-06T06:18:17.850Z,56.20
2023-03-06T06:20:47.186Z,55.00
2023-03-06T06:23:17.493Z,56.50
2023-03-06T06:25:47.298Z,55.70
2023-03-06T06:28:27.305Z,55.80
2023-03-06T06:30:57.287Z,56.00
2023-03-06T06:33:27.172Z,56.00
2023-03-06T06:35:58.190Z,56.30
2023-03-06T06:38:28.023Z,55.90
2023-03-06T06:41:27.125Z,56.20
2023-03-06T06:43:30.341Z,56.80
2023-03-06T06:46:31.495Z,55.20
2023-03-06T06:48:32.210Z,56.10
2023-03-06T06:51:07.259Z,55.90
2023-03-06T06:53:36.985Z,55.10
2023-03-06T06:56:07.162Z,57.10
2023-03-06T06:58:36.987Z,57.50
2023-03-06T07:01:09.321Z,55.60
2023-03-06T07:04:09.276Z,54.60
2023-03-06T07:06:38.681Z,54.60
2023-03-06T07:12:20.861Z,54.60
2023-03-06T07:15:10.127Z,54.30
2023-03-06T07:17:41.876Z,56.50
2023-03-06T07:20:12.229Z,55.60
2023-03-06T07:22:50.705Z,53.50
2023-03-06T07:25:13.428Z,53.60
2023-03-06T07:27:52.806Z,53.50
2023-03-06T07:33:29.014Z,53.20
2023-03-06T07:35:59.213Z,53.40
2023-03-06T07:38:31.857Z,54.50
2023-03-06T07:43:54.687Z,53.70
2023-03-06T07:46:31.887Z,54.10
2023-03-06T07:49:05.015Z,56.80
2023-03-06T07:51:36.022Z,55.00
2023-03-06T07:54:08.862Z,55.80
2023-03-06T07:56:38.762Z,54.40
2023-03-06T07:59:08.595Z,55.80
2023-03-06T08:01:39.748Z,55.50
2023-03-06T08:04:09.708Z,54.60
2023-03-06T08:06:39.541Z,54.50
2023-03-06T08:09:10.092Z,53.60
2023-03-06T08:11:39.954Z,55.10
2023-03-06T08:14:09.905Z,54.00
2023-03-06T08:16:41.054Z,54.40
2023-03-06T08:19:19.510Z,54.60
2023-03-06T08:22:01.845Z,54.10
2023-03-06T08:24:31.821Z,54.70
2023-03-06T08:27:07.986Z,55.10
2023-03-06T08:29:48.348Z,54.40
2023-03-06T08:32:19.280Z,54.20
2023-03-06T08:34:49.340Z,54.50
2023-03-06T08:37:19.214Z,54.20
2023-03-06T08:40:13.835Z,53.80
2023-03-06T08:42:43.677Z,54.60
2023-03-06T08:45:41.806Z,54.10
2023-03-06T08:48:12.519Z,54.20
2023-03-06T08:50:43.103Z,54.00
2023-03-06T08:53:40.387Z,55.00
2023-03-06T08:59:03.133Z,53.80
2023-03-06T09:01:36.734Z,54.70
2023-03-06T09:04:08.921Z,54.70
2023-03-06T09:06:39.990Z,55.20
2023-03-06T09:09:10.202Z,55.00
2023-03-06T09:11:41.709Z,54.20
2023-03-06T09:14:11.537Z,54.40
2023-03-06T09:16:41.555Z,53.80
2023-03-06T09:19:11.358Z,55.10
2023-03-06T09:21:41.335Z,55.60
2023-03-06T09:24:11.552Z,55.20
2023-03-06T09:26:45.923Z,55.80
2023-03-06T09:29:13.614Z,54.50
2023-03-06T09:31:43.544Z,55.90
2023-03-06T09:34:13.373Z,55.50
2023-03-06T09:36:56.735Z,53.70
2023-03-06T09:39:22.030Z,54.90
2023-03-06T09:41:52.220Z,55.30
2023-03-06T09:44:29.766Z,55.20
2023-03-06T09:47:03.519Z,55.30
2023-03-06T09:49:50.882Z,53.70
2023-03-06T09:52:34.040Z,54.00
2023-03-06T09:55:05.061Z,54.90
2023-03-06T09:57:36.343Z,55.00
2023-03-06T10:00:16.607Z,55.70
2023-03-06T10:02:50.796Z,55.80
2023-03-06T10:05:37.287Z,55.80
2023-03-06T10:08:23.993Z,55.60
2023-03-06T10:11:12.946Z,56.20
2023-03-06T10:16:38.436Z,56.90
2023-03-06T10:19:09.481Z,55.80
2023-03-06T10:21:57.088Z,56.50
2023-03-06T10:24:46.427Z,56.20
2023-03-06T10:27:24.467Z,56.10
2023-03-06T10:30:03.053Z,56.50
2023-03-06T10:32:42.829Z,56.50
2023-03-06T10:35:03.326Z,56.80
2023-03-06T10:37:33.593Z,56.70
2023-03-06T10:40:05.132Z,56.80
2023-03-06T10:42:43.158Z,56.60
2023-03-06T10:45:17.288Z,56.70
2023-03-06T10:47:47.617Z,56.90
2023-03-06T10:50:21.862Z,56.90
2023-03-06T10:53:02.731Z,57.00
2023-03-06T10:55:46.127Z,57.20
2023-03-06T11:01:19.366Z,57.40
2023-03-06T11:03:50.811Z,57.40
2023-03-06T11:06:38.322Z,57.50
2023-03-06T11:09:50.391Z,57.60
2023-03-06T11:12:29.729Z,57.40
2023-03-06T11:18:05.547Z,57.90
2023-03-06T11:20:50.424Z,57.90
2023-03-06T11:23:11.814Z,57.90
2023-03-06T11:25:58.076Z,58.10
2023-03-06T11:28:29.178Z,58.40
2023-03-06T11:31:03.357Z,58.20
2023-03-06T11:33:47.526Z,58.40
2023-03-06T11:36:18.538Z,58.70
2023-03-06T11:41:50.705Z,59.00
2023-03-06T11:44:27.623Z,58.90
2023-03-06T11:47:15.162Z,59.10
2023-03-06T11:49:49.132Z,59.20
2023-03-06T11:52:26.112Z,59.30
2023-03-06T11:55:04.359Z,59.30
2023-03-06T11:57:35.386Z,59.30
2023-03-06T12:00:06.585Z,59.40
2023-03-06T12:02:38.880Z,59.40
2023-03-06T12:05:26.769Z,59.50
2023-03-06T12:08:00.760Z,59.50
2023-03-06T12:10:31.970Z,59.50
2023-03-06T12:13:08.826Z,59.50
2023-03-06T12:15:45.067Z,59.30
2023-03-06T12:18:32.465Z,59.40
2023-03-06T12:21:06.794Z,59.40
2023-03-06T12:23:40.909Z,59.60
2023-03-06T12:26:21.009Z,59.60
2023-03-06T12:28:52.379Z,59.70
2023-03-06T12:31:24.675Z,59.70
2023-03-06T12:33:59.638Z,59.60
2023-03-06T12:36:30.673Z,59.70
2023-03-06T12:39:02.396Z,59.70
2023-03-06T12:41:49.710Z,59.70
2023-03-06T12:57:31.882Z,60.00
2023-03-06T13:00:02.929Z,60.00
2023-03-06T13:02:47.901Z,60.00
2023-03-06T13:08:54.021Z,60.00
2023-03-06T13:11:41.290Z,60.00
2023-03-06T13:14:28.713Z,60.00
2023-03-06T13:16:59.944Z,60.20
2023-03-06T13:19:29.951Z,61.10
2023-03-06T13:22:01.303Z,60.30
2023-03-06T13:24:37.984Z,60.60
2023-03-06T13:27:11.121Z,60.50
2023-03-06T13:29:42.135Z,60.60
2023-03-06T13:32:19.111Z,60.80
2023-03-06T13:34:51.113Z,60.90
2023-03-06T13:47:55.769Z,61.40
2023-03-06T13:50:21.714Z,61.50
2023-03-06T13:53:07.955Z,61.60
2023-03-06T13:55:55.107Z,61.90
2023-03-06T13:58:31.778Z,62.10
2023-03-06T14:01:09.630Z,62.00
2023-03-06T14:03:49.673Z,62.10
2023-03-06T14:06:38.774Z,62.30
2023-03-06T14:09:09.934Z,62.10
2023-03-06T14:11:49.863Z,62.30
2023-03-06T14:14:20.242Z,62.30
2023-03-06T14:16:51.304Z,62.40
2023-03-06T14:19:27.455Z,62.40
2023-03-06T14:22:06.901Z,62.50
2023-03-06T14:24:51.286Z,62.50
2023-03-06T14:27:21.439Z,62.70
2023-03-06T14:29:52.231Z,63.00
2023-03-06T14:32:23.338Z,63.20
2023-03-06T14:34:53.916Z,63.40
2023-03-06T14:40:47.219Z,63.70
2023-03-06T14:43:32.834Z,64.40
2023-03-06T14:46:31.685Z,65.20
2023-03-06T14:49:04.601Z,65.40
2023-03-06T14:51:35.024Z,65.30
2023-03-06T14:57:32.470Z,65.40
2023-03-06T15:00:23.838Z,65.70
2023-03-06T15:02:58.539Z,65.70
2023-03-06T15:11:27.684Z,66.20
2023-03-06T15:37:27.901Z,67.50
2023-03-06T15:40:05.573Z,68.20
2023-03-06T15:42:36.562Z,68.00
2023-03-06T15:53:50.283Z,66.90
2023-03-06T15:56:22.968Z,67.00
2023-03-06T15:58:53.616Z,66.90
2023-03-06T16:04:19.893Z,67.30
2023-03-06T16:09:47.159Z,67.40
2023-03-06T16:12:18.592Z,67.80
2023-03-06T16:14:49.831Z,67.60
2023-03-06T16:17:33.984Z,68.10
2023-03-06T16:20:03.946Z,67.90
2023-03-06T16:22:33.890Z,68.20
2023-03-06T16:25:07.221Z,68.20
2023-03-06T16:27:37.120Z,68.40
2023-03-06T16:32:58.462Z,68.50
2023-03-06T16:35:40.548Z,68.40
2023-03-06T16:38:11.630Z,68.30
2023-03-06T16:43:31.409Z,68.70
2023-03-06T16:46:01.464Z,68.60
2023-03-06T16:48:31.450Z,68.50
2023-03-06T16:53:49.508Z,68.60
2023-03-06T16:56:28.061Z,68.50
2023-03-06T16:58:58.820Z,68.30
2023-03-06T17:01:31.289Z,68.20
2023-03-06T17:04:15.253Z,67.90
2023-03-06T17:06:39.064Z,68.10
2023-03-06T17:09:20.290Z,67.90
2023-03-06T17:11:50.161Z,68.00
2023-03-06T17:14:21.439Z,68.30
2023-03-06T17:16:51.347Z,68.30
2023-03-06T17:19:22.557Z,68.10
2023-03-06T17:21:52.400Z,68.00
2023-03-06T17:24:31.499Z,68.00
2023-03-06T17:27:00.754Z,68.20
2023-03-06T17:29:30.600Z,68.30
2023-03-06T17:32:01.524Z,68.10
2023-03-06T17:34:31.391Z,68.20
2023-03-06T17:37:26.415Z,69.00
2023-03-06T17:39:56.400Z,69.10
2023-03-06T17:42:44.349Z,69.00
2023-03-06T17:45:16.186Z,68.70
2023-03-06T17:47:56.535Z,68.60
2023-03-06T17:50:57.687Z,68.50
2023-03-06T17:53:26.366Z,68.20
2023-03-06T17:58:50.305Z,68.90
2023-03-06T18:01:53.325Z,68.70
2023-03-06T18:04:19.887Z,68.80
2023-03-06T18:06:53.021Z,68.80
2023-03-06T18:15:11.012Z,69.60
2023-03-06T18:18:22.058Z,69.80
2023-03-06T18:22:59.516Z,69.10
2023-03-06T18:25:29.186Z,69.70
2023-03-06T18:27:59.488Z,70.10
2023-03-06T18:30:29.896Z,70.00
2023-03-06T18:33:13.685Z,70.10
2023-03-06T18:35:51.111Z,70.20
2023-03-06T18:38:22.207Z,70.60
2023-03-06T18:40:52.252Z,70.90
2023-03-06T18:43:29.941Z,72.10
2023-03-06T18:46:00.004Z,71.80
2023-03-06T18:48:36.500Z,73.20
2023-03-06T18:51:08.409Z,74.50
2023-03-06T18:53:38.590Z,75.80
2023-03-06T18:56:10.414Z,75.60
2023-03-06T18:58:41.424Z,77.40
2023-03-06T19:01:13.818Z,77.10
2023-03-06T19:03:43.778Z,78.10
2023-03-06T19:06:14.695Z,79.00
2023-03-06T19:08:44.623Z,78.40
2023-03-06T19:11:15.490Z,79.90
2023-03-06T19:16:35.128Z,80.70
2023-03-06T19:19:05.114Z,80.00
2023-03-06T19:21:35.072Z,80.00
2023-03-06T19:24:05.339Z,80.10
2023-03-06T19:26:35.161Z,80.30
2023-03-06T19:29:05.082Z,80.20
2023-03-06T19:31:34.962Z,80.20
2023-03-06T19:34:05.001Z,79.90
2023-03-06T19:36:35.344Z,79.90
2023-03-06T19:39:06.481Z,79.20
2023-03-06T19:41:36.435Z,79.30
2023-03-06T19:44:06.903Z,78.60
2023-03-06T19:47:03.837Z,78.50
2023-03-06T19:49:33.588Z,78.10
2023-03-06T19:52:03.432Z,77.80
2023-03-06T19:54:33.267Z,77.50
2023-03-06T19:57:03.089Z,77.20
2023-03-06T19:59:33.292Z,76.90
2023-03-06T20:02:03.179Z,76.20
2023-03-06T20:04:36.391Z,76.50
2023-03-06T20:07:09.300Z,76.40
2023-03-06T20:09:39.152Z,75.80
2023-03-06T20:12:09.202Z,75.70
2023-03-06T20:14:39.086Z,75.80
2023-03-06T20:17:08.948Z,75.40
2023-03-06T20:19:39.083Z,75.30
2023-03-06T20:22:08.898Z,75.20
2023-03-06T20:24:38.682Z,75.10
2023-03-06T20:27:08.412Z,74.70
2023-03-06T20:29:38.294Z,74.60
2023-03-06T20:32:08.605Z,74.90
2023-03-06T20:34:40.286Z,74.80
2023-03-06T20:37:10.872Z,74.70
2023-03-06T20:39:40.719Z,74.80
2023-03-06T20:42:10.562Z,74.90
2023-03-06T20:44:40.507Z,91.20
2023-03-06T20:47:10.647Z,73.90
2023-03-06T20:49:40.585Z,74.10
2023-03-06T20:52:10.457Z,74.10
2023-03-06T20:54:40.438Z,73.70
2023-03-06T20:57:10.347Z,73.50
2023-03-06T20:59:40.359Z,73.50
2023-03-06T21:02:11.648Z,73.70
2023-03-06T21:04:42.039Z,78.20
2023-03-06T21:07:11.928Z,77.60
2023-03-06T21:09:42.599Z,76.90
2023-03-06T21:12:12.548Z,77.90
2023-03-06T21:14:42.463Z,78.60
2023-03-06T21:17:13.813Z,79.40
2023-03-06T21:19:43.730Z,80.80
2023-03-06T21:22:13.636Z,81.20
2023-03-06T21:24:43.947Z,83.30
2023-03-06T21:37:23.422Z,74.10
2023-03-06T21:39:53.282Z,73.60
2023-03-06T21:42:23.297Z,73.90
2023-03-06T21:44:53.215Z,73.90
2023-03-06T21:47:23.072Z,74.60
2023-03-06T21:49:52.864Z,74.10
2023-03-06T21:52:22.738Z,73.80
2023-03-06T21:54:52.591Z,74.30
2023-03-06T21:57:22.480Z,74.50
2023-03-06T21:59:52.397Z,74.90
2023-03-06T22:04:52.251Z,74.50
2023-03-06T22:07:22.460Z,75.30
2023-03-06T22:09:53.497Z,75.60
2023-03-06T22:12:23.963Z,75.80
2023-03-06T22:14:53.853Z,75.80
2023-03-06T22:17:23.893Z,75.90
2023-03-06T22:19:53.714Z,75.90
2023-03-06T22:22:23.565Z,76.00
2023-03-06T22:24:53.601Z,76.00
2023-03-06T22:27:23.387Z,76.00
2023-03-06T22:29:54.296Z,76.30
2023-03-06T22:32:24.401Z,76.20
2023-03-06T22:34:54.293Z,76.00
2023-03-06T22:37:24.148Z,76.30
2023-03-06T22:39:53.995Z,76.50
2023-03-06T22:42:23.820Z,76.70
2023-03-06T22:44:53.683Z,76.90
2023-03-06T22:47:23.540Z,77.10
2023-03-06T22:49:53.447Z,77.70
2023-03-06T22:52:23.289Z,77.70
2023-03-06T22:54:54.229Z,77.80
2023-03-06T22:57:24.043Z,77.50
2023-03-06T22:59:53.892Z,77.90
2023-03-06T23:02:24.017Z,77.80
2023-03-06T23:04:54.269Z,78.20
2023-03-06T23:07:24.092Z,78.00
2023-03-06T23:09:53.951Z,78.00
2023-03-06T23:12:23.816Z,78.00
2023-03-06T23:14:53.658Z,78.10
2023-03-06T23:17:23.456Z,77.80
2023-03-06T23:19:54.173Z,77.90
2023-03-06T23:22:24.013Z,77.80
2023-03-06T23:24:53.842Z,77.60
2023-03-06T23:27:23.687Z,77.60
2023-03-06T23:29:54.826Z,77.70
2023-03-06T23:32:24.924Z,77.80
2023-03-06T23:34:54.767Z,77.30
2023-03-06T23:37:24.622Z,77.40
2023-03-06T23:39:54.600Z,77.60
2023-03-06T23:42:24.611Z,77.50
2023-03-06T23:44:54.475Z,77.60
2023-03-06T23:47:25.518Z,77.60
2023-03-06T23:49:55.374Z,78.00
2023-03-06T23:52:25.144Z,77.60
2023-03-06T23:54:55.242Z,78.20
2023-03-06T23:57:25.155Z,78.10
2023-03-06T23:59:55.054Z,78.30
